Time;durP1;ratioP1;P1;durP2;ratioP2;P2;SDS_P1;SDS_P2;PMS_P1;PMS_P2;Temp;Humidity;BMP_temperature;BMP_pressure;BME280_temperature;BME280_humidity;BME280_pressure;Samples;Min_cycle;Max_cycle;Signal;HPM_P1;HPM_P2
2023/08/13 00:02:19;;;;;;;5.47;2.20;;;16.10;61.90;;;;;;5064822;28;20187;-74
2023/08/13 00:04:46;;;;;;;6.60;2.00;;;16.30;61.70;;;;;;5070436;28;20192;-72
2023/08/13 00:07:14;;;;;;;4.27;2.30;;;16.40;61.20;;;;;;5064536;28;20232;-71
2023/08/13 00:09:44;;;;;;;6.03;2.33;;;16.40;60.70;;;;;;5079359;28;20200;-67
2023/08/13 00:12:11;;;;;;;5.07;2.00;;;16.40;60.30;;;;;;5066875;28;20198;-72
2023/08/13 00:14:38;;;;;;;5.17;2.03;;;16.40;60.20;;;;;;5078007;28;20193;-65
2023/08/13 00:17:06;;;;;;;5.60;1.97;;;16.60;59.90;;;;;;5074076;28;20275;-65
2023/08/13 00:19:33;;;;;;;3.50;1.70;;;16.70;59.60;;;;;;5076467;28;20285;-65
2023/08/13 00:22:00;;;;;;;3.47;1.67;;;16.70;59.40;;;;;;5073757;28;20199;-65
2023/08/13 00:24:28;;;;;;;4.77;1.70;;;16.50;58.80;;;;;;5076711;28;20182;-66
2023/08/13 00:26:55;;;;;;;6.07;2.00;;;16.50;58.90;;;;;;5068059;28;20187;-68
2023/08/13 00:29:22;;;;;;;3.63;1.50;;;16.50;58.40;;;;;;5075060;28;20312;-70
2023/08/13 00:31:49;;;;;;;2.27;1.57;;;16.60;58.70;;;;;;5071845;28;20652;-67
2023/08/13 00:34:17;;;;;;;2.73;1.30;;;16.60;57.90;;;;;;5066461;28;20191;-70
2023/08/13 00:36:44;;;;;;;4.60;1.57;;;16.70;58.20;;;;;;5077130;28;20183;-70
2023/08/13 00:39:12;;;;;;;6.53;1.50;;;16.90;57.30;;;;;;5072248;28;20227;-69
2023/08/13 00:41:39;;;;;;;2.80;1.40;;;17.00;56.90;;;;;;5070266;28;20193;-72
2023/08/13 00:44:07;;;;;;;2.73;1.47;;;17.10;56.80;;;;;;5074849;28;20186;-67
2023/08/13 00:46:34;;;;;;;2.80;1.17;;;17.20;56.10;;;;;;5077838;28;20188;-70
2023/08/13 00:49:02;;;;;;;1.97;1.37;;;17.20;55.60;;;;;;5075942;28;20280;-70
2023/08/13 00:51:31;;;;;;;6.37;1.80;;;17.00;55.80;;;;;;5078264;28;20211;-68
2023/08/13 00:53:58;;;;;;;2.83;1.40;;;17.20;55.60;;;;;;5076749;28;20642;-68
2023/08/13 00:56:25;;;;;;;4.30;1.20;;;17.40;56.00;;;;;;5083249;28;20243;-66
2023/08/13 00:58:53;;;;;;;2.63;1.03;;;17.50;55.30;;;;;;5079043;28;20186;-71
2023/08/13 01:01:20;;;;;;;3.57;1.30;;;17.70;55.20;;;;;;5073877;28;20273;-69
2023/08/13 01:03:47;;;;;;;1.97;1.40;;;17.60;54.70;;;;;;5063238;28;20283;-71
2023/08/13 01:06:36;;;;;;;2.77;1.20;;;17.60;54.70;;;;;;5074787;28;20181;-68
2023/08/13 01:09:25;;;;;;;1.50;1.10;;;17.70;54.50;;;;;;5076669;28;20594;-70
2023/08/13 01:12:09;;;;;;;3.40;1.30;;;17.80;54.20;;;;;;5075928;28;20186;-67
2023/08/13 01:14:49;;;;;;;3.77;1.50;;;18.00;54.60;;;;;;5075234;28;20264;-67
2023/08/13 01:17:19;;;;;;;5.00;1.57;;;18.30;53.60;;;;;;5069270;28;20186;-66
2023/08/13 01:19:47;;;;;;;3.80;1.47;;;18.60;53.20;;;;;;5072670;28;20182;-66
2023/08/13 01:22:27;;;;;;;2.43;1.40;;;18.50;52.80;;;;;;5074112;28;20180;-66
2023/08/13 01:24:56;;;;;;;5.00;1.50;;;18.60;52.50;;;;;;5063229;28;20190;-67
2023/08/13 01:27:37;;;;;;;3.37;1.60;;;18.80;51.70;;;;;;5061372;28;20543;-66
2023/08/13 01:30:23;;;;;;;5.70;1.30;;;19.00;51.30;;;;;;5073705;28;20188;-65
2023/08/13 01:33:03;;;;;;;7.67;1.73;;;19.00;50.90;;;;;;5070506;28;20188;-73
2023/08/13 01:35:33;;;;;;;3.47;1.30;;;19.10;50.70;;;;;;5078854;28;20277;-65
2023/08/13 01:38:04;;;;;;;3.03;1.30;;;19.20;51.00;;;;;;5070322;28;20643;-66
2023/08/13 01:40:32;;;;;;;2.33;1.20;;;19.10;50.70;;;;;;5074774;28;20656;-66
2023/08/13 01:42:59;;;;;;;2.77;1.20;;;19.10;50.90;;;;;;5067493;28;20225;-74
2023/08/13 01:45:39;;;;;;;2.63;1.20;;;19.30;50.10;;;;;;5079859;28;20189;-67
2023/08/13 01:48:07;;;;;;;1.90;1.00;;;19.70;49.80;;;;;;5073254;28;20234;-70
2023/08/13 01:50:35;;;;;;;2.07;1.07;;;19.70;48.60;;;;;;5078746;28;20186;-70
2023/08/13 01:53:05;;;;;;;2.67;1.20;;;19.00;49.70;;;;;;5071225;28;20187;-77
2023/08/13 01:55:34;;;;;;;3.43;1.10;;;19.00;50.50;;;;;;5081142;28;20200;-73
2023/08/13 01:58:01;;;;;;;1.83;1.00;;;19.00;50.40;;;;;;5072517;28;20285;-72
2023/08/13 02:00:29;;;;;;;1.70;1.00;;;19.10;49.70;;;;;;5074972;28;20175;-74
2023/08/13 02:02:56;;;;;;;1.57;1.03;;;18.90;50.20;;;;;;5074227;28;20210;-70
2023/08/13 02:05:23;;;;;;;2.90;1.40;;;18.80;49.90;;;;;;5079482;28;20505;-72
2023/08/13 02:07:51;;;;;;;2.27;1.10;;;18.70;50.50;;;;;;5068919;28;20234;-74
2023/08/13 02:10:18;;;;;;;4.13;1.37;;;18.90;50.10;;;;;;5080586;28;20656;-67
2023/08/13 02:12:46;;;;;;;1.43;0.93;;;19.10;49.90;;;;;;5072782;28;20292;-67
2023/08/13 02:15:13;;;;;;;3.00;1.30;;;18.90;49.80;;;;;;5072417;28;20178;-74
2023/08/13 02:17:40;;;;;;;3.17;1.10;;;18.80;50.60;;;;;;5072628;28;20186;-69
2023/08/13 02:20:11;;;;;;;1.53;0.90;;;18.70;50.90;;;;;;5078541;28;20191;-68
2023/08/13 02:22:38;;;;;;;3.03;1.30;;;18.70;51.30;;;;;;5078880;28;20171;-67
2023/08/13 02:25:06;;;;;;;3.13;0.97;;;18.40;51.50;;;;;;5080865;28;20183;-67
2023/08/13 02:27:34;;;;;;;1.27;0.90;;;18.50;51.90;;;;;;5077676;28;20271;-74
2023/08/13 02:30:02;;;;;;;3.03;1.33;;;18.40;52.10;;;;;;5076829;28;20183;-65
2023/08/13 02:32:29;;;;;;;1.50;0.90;;;18.30;52.00;;;;;;5071911;28;20740;-66
2023/08/13 02:35:00;;;;;;;5.83;1.53;;;18.30;52.10;;;;;;5073851;28;20179;-74
2023/08/13 02:37:27;;;;;;;1.20;1.07;;;18.30;52.70;;;;;;5053355;28;20207;-70
2023/08/13 02:40:08;;;;;;;;;;;;;;;;;;;;;
2023/08/13 02:42:35;;;;;;;1.70;1.00;;;18.50;53.80;;;;;;5038160;28;20171;-68
2023/08/13 02:45:02;;;;;;;2.50;0.90;;;18.80;52.90;;;;;;5070876;28;20188;-67
2023/08/13 02:47:30;;;;;;;3.90;1.10;;;19.00;52.80;;;;;;5064578;28;20206;-65
2023/08/13 02:49:57;;;;;;;1.77;1.20;;;19.10;52.40;;;;;;5064681;28;20194;-66
2023/08/13 02:52:28;;;;;;;2.47;1.20;;;18.90;52.70;;;;;;5052282;28;20186;-72
2023/08/13 02:54:55;;;;;;;1.43;1.00;;;18.70;53.80;;;;;;5073503;28;20185;-66
2023/08/13 02:57:23;;;;;;;2.07;1.10;;;18.50;54.20;;;;;;5073707;28;20171;-69
2023/08/13 02:59:50;;;;;;;3.20;1.00;;;18.60;54.10;;;;;;5052070;28;20817;-75
2023/08/13 03:02:18;;;;;;;3.30;1.30;;;19.50;52.70;;;;;;5067846;28;20175;-72
2023/08/13 03:04:45;;;;;;;1.83;1.07;;;20.20;50.70;;;;;;5074545;28;20667;-68
2023/08/13 03:07:12;;;;;;;3.33;1.10;;;20.50;49.60;;;;;;5076694;28;20227;-69
2023/08/13 03:09:40;;;;;;;1.77;0.90;;;19.60;51.20;;;;;;5071903;28;20207;-76
2023/08/13 03:12:14;;;;;;;4.60;1.00;;;19.10;52.90;;;;;;5075746;28;20298;-66
2023/08/13 03:14:41;;;;;;;2.00;1.10;;;18.70;54.20;;;;;;5042641;28;20310;-68
2023/08/13 03:17:09;;;;;;;2.27;1.10;;;18.70;53.90;;;;;;5058143;28;20214;-70
2023/08/13 03:19:39;;;;;;;1.33;0.90;;;18.70;53.80;;;;;;5077240;28;20180;-65
2023/08/13 03:22:07;;;;;;;3.60;1.13;;;18.70;54.00;;;;;;5077529;28;20192;-66
2023/08/13 03:24:37;;;;;;;4.50;1.23;;;18.80;53.50;;;;;;5078558;28;20191;-68
2023/08/13 03:27:09;;;;;;;1.97;1.10;;;18.90;53.80;;;;;;5074225;28;20248;-67
2023/08/13 03:29:36;;;;;;;4.87;1.00;;;19.10;53.30;;;;;;5076492;28;20215;-65
2023/08/13 03:32:03;;;;;;;3.13;1.03;;;19.20;53.50;;;;;;5074281;28;20215;-65
2023/08/13 03:34:46;;;;;;;3.60;1.40;;;19.20;53.70;;;;;;5080375;28;20179;-66
2023/08/13 03:37:13;;;;;;;1.57;1.20;;;19.30;53.80;;;;;;5074873;28;20537;-66
2023/08/13 03:39:41;;;;;;;3.77;1.37;;;19.30;54.70;;;;;;5076125;28;20187;-65
2023/08/13 03:42:09;;;;;;;2.50;1.30;;;19.30;56.50;;;;;;5061066;28;20183;-68
2023/08/13 03:44:36;;;;;;;4.47;1.43;;;19.30;57.80;;;;;;5073440;28;20241;-69
2023/08/13 03:47:15;;;;;;;3.93;1.40;;;19.50;57.30;;;;;;5079700;28;20208;-64
2023/08/13 03:49:45;;;;;;;3.43;1.10;;;19.40;57.40;;;;;;5074330;28;20198;-67
2023/08/13 03:52:12;;;;;;;5.87;4.23;;;19.10;57.90;;;;;;5076008;28;20667;-66
2023/08/13 03:54:40;;;;;;;2.93;2.00;;;18.90;58.40;;;;;;5077137;28;20179;-66
2023/08/13 03:57:10;;;;;;;2.37;1.20;;;18.70;59.30;;;;;;5074277;28;20210;-66
2023/08/13 03:59:37;;;;;;;3.83;1.47;;;18.60;59.60;;;;;;5072140;28;20171;-71
2023/08/13 04:02:08;;;;;;;7.23;1.43;;;18.30;61.00;;;;;;5068743;28;20225;-66
2023/08/13 04:04:35;;;;;;;6.67;1.20;;;18.20;62.30;;;;;;5055956;28;20176;-65
2023/08/13 04:07:21;;;;;;;6.63;1.40;;;18.10;63.10;;;;;;5073580;28;20229;-71
2023/08/13 04:09:48;;;;;;;5.37;1.20;;;18.00;62.30;;;;;;5071944;28;20256;-68
2023/08/13 04:12:16;;;;;;;3.10;1.40;;;17.80;63.40;;;;;;5071900;28;20274;-69
2023/08/13 04:15:05;;;;;;;4.47;1.30;;;17.70;63.60;;;;;;5072061;28;20195;-66
2023/08/13 04:17:35;;;;;;;4.23;1.20;;;17.50;64.00;;;;;;5043923;28;20659;-68
2023/08/13 04:20:10;;;;;;;7.40;1.37;;;17.40;64.40;;;;;;5073396;28;20218;-72
2023/08/13 04:22:39;;;;;;;4.10;1.10;;;17.40;64.80;;;;;;5076294;28;20732;-74
2023/08/13 04:25:10;;;;;;;2.47;1.20;;;17.50;63.50;;;;;;5072244;28;20301;-73
2023/08/13 04:27:37;;;;;;;2.60;1.20;;;17.60;62.40;;;;;;5079229;28;20214;-68
2023/08/13 04:30:06;;;;;;;3.53;1.37;;;17.50;62.90;;;;;;5076304;28;20664;-66
2023/08/13 04:32:36;;;;;;;3.03;1.27;;;17.40;63.20;;;;;;5079946;28;20184;-67
2023/08/13 04:35:04;;;;;;;3.10;1.40;;;17.50;63.10;;;;;;5074499;28;20565;-72
2023/08/13 04:37:31;;;;;;;2.23;1.07;;;17.30;63.60;;;;;;5079982;28;20179;-70
2023/08/13 04:39:59;;;;;;;3.37;1.10;;;17.20;64.70;;;;;;5077697;28;20182;-72
2023/08/13 04:42:27;;;;;;;6.00;1.27;;;17.20;65.30;;;;;;5080461;28;20182;-69
2023/08/13 04:44:57;;;;;;;5.80;1.33;;;17.10;65.80;;;;;;5075462;28;20194;-67
2023/08/13 04:47:25;;;;;;;4.17;2.03;;;16.90;68.90;;;;;;5072899;28;20178;-67
2023/08/13 04:49:52;;;;;;;4.67;1.57;;;16.90;70.20;;;;;;5069235;28;20605;-67
2023/08/13 04:52:19;;;;;;;4.93;1.63;;;16.90;71.30;;;;;;5069806;28;20175;-66
2023/08/13 04:54:48;;;;;;;6.93;1.73;;;16.80;71.80;;;;;;5063671;28;20208;-68
2023/08/13 04:57:15;;;;;;;6.87;1.87;;;16.80;71.90;;;;;;5075237;28;20180;-67
2023/08/13 04:59:45;;;;;;;4.10;1.60;;;16.60;72.00;;;;;;5072103;28;20247;-70
2023/08/13 05:02:13;;;;;;;5.40;1.80;;;16.60;72.60;;;;;;5079587;28;20227;-67
2023/08/13 05:04:40;;;;;;;7.13;1.93;;;16.50;72.90;;;;;;5082143;28;20719;-67
2023/08/13 05:07:07;;;;;;;7.57;2.03;;;16.50;73.50;;;;;;5068210;28;20720;-66
2023/08/13 05:09:35;;;;;;;5.73;2.20;;;16.50;73.70;;;;;;5072294;28;20342;-66
2023/08/13 05:12:02;;;;;;;8.27;1.80;;;16.40;74.40;;;;;;5050269;28;20206;-69
2023/08/13 05:14:30;;;;;;;5.07;1.60;;;16.30;74.80;;;;;;5079692;28;20191;-67
2023/08/13 05:16:57;;;;;;;10.03;1.63;;;16.20;75.10;;;;;;5075526;28;20544;-66
2023/08/13 05:19:24;;;;;;;7.33;1.77;;;16.30;75.10;;;;;;5075045;28;20194;-66
2023/08/13 05:21:52;;;;;;;7.53;1.50;;;16.30;75.00;;;;;;5077879;28;20681;-67
2023/08/13 05:24:20;;;;;;;9.07;1.77;;;16.20;74.60;;;;;;5077883;28;20191;-67
2023/08/13 05:26:47;;;;;;;4.67;1.60;;;16.20;74.60;;;;;;5074265;28;20186;-67
2023/08/13 05:29:14;;;;;;;4.03;1.77;;;16.20;74.30;;;;;;5079975;28;20215;-70
2023/08/13 05:31:42;;;;;;;4.47;1.50;;;16.30;74.00;;;;;;5078136;28;20189;-65
2023/08/13 05:34:19;;;;;;;5.40;2.13;;;16.30;73.90;;;;;;5082515;28;20186;-69
2023/08/13 05:36:46;;;;;;;4.77;1.70;;;16.40;73.40;;;;;;5059060;28;20195;-66
2023/08/13 05:39:16;;;;;;;5.40;2.10;;;16.40;73.50;;;;;;5082670;28;20177;-68
2023/08/13 05:41:47;;;;;;;5.33;1.80;;;16.50;73.10;;;;;;5070698;28;20188;-66
2023/08/13 05:44:14;;;;;;;5.50;1.50;;;16.50;71.90;;;;;;5073906;28;20203;-67
2023/08/13 05:46:42;;;;;;;3.50;1.60;;;16.40;72.00;;;;;;5070015;28;20190;-66
2023/08/13 05:49:09;;;;;;;7.23;1.87;;;16.50;72.00;;;;;;5084039;28;20253;-67
2023/08/13 05:51:39;;;;;;;6.00;2.10;;;16.50;71.70;;;;;;5078304;28;20258;-66
2023/08/13 05:54:08;;;;;;;8.30;2.00;;;16.30;72.90;;;;;;5074245;28;20182;-67
2023/08/13 05:56:37;;;;;;;3.90;2.07;;;16.20;73.50;;;;;;5066387;28;20234;-70
2023/08/13 05:59:04;;;;;;;8.00;2.53;;;16.00;74.20;;;;;;5076627;28;20198;-66
2023/08/13 06:01:32;;;;;;;8.80;3.30;;;16.00;75.20;;;;;;5074620;28;20269;-66
2023/08/13 06:04:00;;;;;;;6.27;2.90;;;16.00;75.20;;;;;;5078686;28;20205;-66
2023/08/13 06:06:27;;;;;;;7.17;2.57;;;15.90;75.10;;;;;;5080205;28;20187;-66
2023/08/13 06:08:55;;;;;;;8.83;2.20;;;15.80;75.50;;;;;;5078491;28;20236;-66
2023/08/13 06:11:25;;;;;;;5.07;1.90;;;15.80;75.70;;;;;;5074395;28;20200;-66
2023/08/13 06:13:53;;;;;;;8.40;2.00;;;15.80;75.70;;;;;;5078934;28;20186;-67
2023/08/13 06:16:20;;;;;;;8.17;2.03;;;15.80;75.80;;;;;;5077221;28;20183;-67
2023/08/13 06:18:47;;;;;;;9.90;2.73;;;15.80;75.70;;;;;;5078314;28;20669;-64
2023/08/13 06:21:15;;;;;;;6.80;2.57;;;15.80;75.80;;;;;;5067247;28;20241;-64
2023/08/13 06:23:42;;;;;;;5.47;2.30;;;15.70;75.80;;;;;;5070426;28;20673;-63
2023/08/13 06:26:09;;;;;;;9.63;2.10;;;15.70;75.70;;;;;;5075032;28;20170;-64
2023/08/13 06:28:37;;;;;;;5.97;1.70;;;15.70;75.60;;;;;;5076250;28;20565;-65
2023/08/13 06:31:06;;;;;;;3.97;1.57;;;15.60;75.40;;;;;;5075162;28;20183;-65
2023/08/13 06:33:34;;;;;;;8.90;2.13;;;15.60;75.50;;;;;;5073507;28;20196;-65
2023/08/13 06:36:01;;;;;;;6.93;1.93;;;15.70;75.50;;;;;;5073788;28;20379;-66
2023/08/13 06:38:31;;;;;;;5.43;1.60;;;15.60;75.00;;;;;;5060318;28;20201;-65
2023/08/13 06:41:08;;;;;;;6.83;1.67;;;15.60;75.10;;;;;;5079562;28;20175;-65
2023/08/13 06:43:35;;;;;;;7.47;2.00;;;15.60;74.80;;;;;;5070587;28;20187;-65
2023/08/13 06:46:03;;;;;;;7.97;2.33;;;15.60;75.30;;;;;;5079427;28;20167;-67
2023/08/13 06:48:33;;;;;;;6.63;1.90;;;15.60;75.20;;;;;;5065832;28;20221;-73
2023/08/13 06:51:01;;;;;;;4.70;1.90;;;15.50;75.20;;;;;;5071276;28;20215;-71
2023/08/13 06:53:28;;;;;;;5.33;1.60;;;15.50;75.70;;;;;;5072517;28;20213;-68
2023/08/13 06:55:55;;;;;;;6.93;1.80;;;15.40;75.70;;;;;;5079973;28;20304;-73
2023/08/13 06:58:23;;;;;;;7.83;2.07;;;15.40;75.60;;;;;;5061354;28;20181;-64
2023/08/13 07:00:50;;;;;;;4.07;1.63;;;15.40;76.00;;;;;;5077416;28;20520;-66
2023/08/13 07:03:17;;;;;;;4.40;1.67;;;15.30;75.20;;;;;;5073189;28;20182;-66
2023/08/13 07:05:45;;;;;;;8.43;1.60;;;15.40;75.30;;;;;;5078653;28;20221;-64
2023/08/13 07:08:12;;;;;;;6.07;1.87;;;15.30;75.10;;;;;;5055537;28;20224;-65
2023/08/13 07:10:40;;;;;;;7.37;1.90;;;15.40;74.80;;;;;;5083117;28;20644;-65
2023/08/13 07:13:08;;;;;;;4.67;1.77;;;15.40;74.90;;;;;;5073455;28;20178;-66
2023/08/13 07:15:35;;;;;;;8.43;1.90;;;15.30;75.10;;;;;;5078003;28;20182;-67
2023/08/13 07:18:03;;;;;;;6.97;2.00;;;15.30;75.40;;;;;;5073756;28;20188;-75
2023/08/13 07:20:31;;;;;;;8.37;2.57;;;15.30;75.80;;;;;;5076451;28;20276;-74
2023/08/13 07:23:00;;;;;;;15.87;2.53;;;15.30;76.00;;;;;;5073232;28;20189;-70
2023/08/13 07:25:28;;;;;;;9.90;1.90;;;15.30;76.40;;;;;;5073442;28;20186;-67
2023/08/13 07:27:55;;;;;;;4.53;2.20;;;15.30;76.60;;;;;;5056453;28;20218;-72
2023/08/13 07:30:22;;;;;;;7.10;1.90;;;15.30;76.70;;;;;;5071893;28;20680;-65
2023/08/13 07:32:50;;;;;;;6.83;2.03;;;15.30;77.20;;;;;;5058983;28;20266;-70
2023/08/13 07:35:17;;;;;;;5.70;2.17;;;15.30;77.30;;;;;;5077479;28;20537;-65
2023/08/13 07:37:44;;;;;;;8.20;2.80;;;15.20;77.60;;;;;;5068451;28;20734;-65
2023/08/13 07:40:12;;;;;;;12.93;3.33;;;15.20;78.30;;;;;;5076943;28;20199;-68
2023/08/13 07:42:40;;;;;;;12.13;3.47;;;15.20;79.10;;;;;;5060364;28;20184;-66
2023/08/13 07:45:14;;;;;;;11.87;4.00;;;15.20;79.40;;;;;;5062685;28;20184;-65
2023/08/13 07:47:42;;;;;;;10.40;3.40;;;15.10;79.50;;;;;;5083002;28;20191;-66
2023/08/13 07:50:10;;;;;;;11.13;3.00;;;15.10;79.70;;;;;;5070056;28;20183;-65
2023/08/13 07:52:37;;;;;;;8.27;3.17;;;15.10;79.50;;;;;;5067815;28;20172;-66
2023/08/13 07:55:05;;;;;;;10.90;2.87;;;15.00;79.70;;;;;;5075555;28;20187;-66
2023/08/13 07:57:33;;;;;;;7.10;2.47;;;15.00;79.60;;;;;;5070748;28;20170;-66
2023/08/13 08:00:00;;;;;;;12.90;2.87;;;15.00;79.80;;;;;;5073622;28;20900;-66
2023/08/13 08:02:28;;;;;;;9.23;2.67;;;15.00;79.40;;;;;;5070425;28;20176;-65
2023/08/13 08:04:55;;;;;;;8.97;2.80;;;15.00;79.00;;;;;;5071703;28;20211;-65
2023/08/13 08:07:25;;;;;;;7.10;2.40;;;14.90;78.50;;;;;;5078387;28;20233;-67
2023/08/13 08:09:53;;;;;;;7.40;2.60;;;15.00;77.80;;;;;;5077147;28;20325;-64
2023/08/13 08:12:21;;;;;;;6.40;2.33;;;15.00;77.40;;;;;;5078817;28;20712;-70
2023/08/13 08:14:48;;;;;;;6.43;2.30;;;15.00;77.20;;;;;;5076404;28;20262;-67
2023/08/13 08:17:15;;;;;;;10.83;3.00;;;15.00;76.80;;;;;;5080661;28;20536;-67
2023/08/13 08:19:43;;;;;;;11.17;2.50;;;14.90;76.80;;;;;;5071144;28;20219;-67
2023/08/13 08:22:10;;;;;;;11.03;2.67;;;14.90;76.50;;;;;;5074105;28;20222;-66
2023/08/13 08:24:37;;;;;;;6.93;2.10;;;15.00;76.50;;;;;;5061308;28;20188;-65
2023/08/13 08:27:07;;;;;;;4.13;2.07;;;14.90;76.40;;;;;;5075806;28;20197;-65
2023/08/13 08:29:36;;;;;;;10.40;2.37;;;14.90;76.60;;;;;;5079213;28;20214;-66
2023/08/13 08:32:09;;;;;;;10.03;2.83;;;14.80;76.70;;;;;;5082670;28;20202;-65
2023/08/13 08:34:37;;;;;;;11.07;2.43;;;14.80;76.60;;;;;;5070184;28;20219;-68
2023/08/13 08:37:04;;;;;;;8.83;2.43;;;14.80;76.90;;;;;;5067939;28;20186;-68
2023/08/13 08:39:35;;;;;;;10.80;3.10;;;14.80;77.00;;;;;;5075768;28;20628;-69
2023/08/13 08:42:06;;;;;;;9.47;3.07;;;14.80;77.30;;;;;;5063239;28;20199;-69
2023/08/13 08:44:34;;;;;;;6.00;2.40;;;14.80;77.00;;;;;;5070607;28;20178;-66
2023/08/13 08:47:04;;;;;;;6.77;2.60;;;14.80;77.50;;;;;;5081238;28;20606;-65
2023/08/13 08:49:31;;;;;;;9.40;3.10;;;14.80;77.60;;;;;;5074543;28;20219;-65
2023/08/13 08:51:59;;;;;;;7.93;2.67;;;14.80;77.70;;;;;;5079641;28;20304;-71
2023/08/13 08:54:26;;;;;;;11.23;3.40;;;14.80;78.00;;;;;;5079164;28;20641;-66
2023/08/13 08:56:54;;;;;;;13.30;3.50;;;14.80;78.00;;;;;;5081339;28;20185;-64
2023/08/13 08:59:21;;;;;;;10.00;3.77;;;14.80;78.20;;;;;;5079091;28;20268;-66
2023/08/13 09:01:49;;;;;;;10.33;3.17;;;14.80;78.20;;;;;;5077678;28;20179;-66
2023/08/13 09:04:16;;;;;;;9.87;3.10;;;14.90;78.10;;;;;;5077585;28;20186;-65
2023/08/13 09:06:57;;;;;;;8.80;3.13;;;14.90;78.20;;;;;;5077100;28;20230;-67
2023/08/13 09:09:26;;;;;;;12.10;3.87;;;14.90;78.20;;;;;;5061594;28;20301;-66
2023/08/13 09:11:54;;;;;;;11.50;4.30;;;14.90;78.20;;;;;;5069536;28;20190;-67
2023/08/13 09:14:23;;;;;;;12.90;4.10;;;14.90;77.90;;;;;;5076660;28;20201;-66
2023/08/13 09:16:52;;;;;;;8.03;3.80;;;14.90;77.90;;;;;;5076541;28;20225;-66
2023/08/13 09:19:22;;;;;;;10.20;3.80;;;14.80;78.00;;;;;;5081359;28;20296;-68
2023/08/13 09:21:54;;;;;;;12.07;2.93;;;14.80;78.10;;;;;;5075828;28;20219;-65
2023/08/13 09:24:36;;;;;;;10.77;2.50;;;14.80;77.70;;;;;;5072799;28;20232;-71
2023/08/13 09:27:09;;;;;;;15.87;3.03;;;14.80;77.40;;;;;;5058011;28;20290;-72
2023/08/13 09:29:42;;;;;;;20.43;3.53;;;14.80;77.60;;;;;;5071948;28;20929;-66
2023/08/13 09:32:10;;;;;;;7.40;2.80;;;14.90;77.50;;;;;;5058094;28;20649;-75
2023/08/13 09:34:37;;;;;;;9.20;3.03;;;14.80;76.60;;;;;;5075828;28;20241;-76
2023/08/13 09:37:05;;;;;;;11.13;3.07;;;14.80;76.70;;;;;;5078743;28;20212;-70
2023/08/13 09:39:36;;;;;;;8.27;2.50;;;14.80;76.10;;;;;;5052914;28;20259;-72
2023/08/13 09:42:07;;;;;;;8.63;2.53;;;14.80;75.70;;;;;;5066721;28;20184;-77
2023/08/13 09:44:35;;;;;;;9.63;2.90;;;14.80;75.50;;;;;;5068881;28;20254;-66
2023/08/13 09:47:05;;;;;;;12.03;3.10;;;14.80;75.10;;;;;;5071844;28;20501;-68
2023/08/13 09:49:37;;;;;;;9.90;2.87;;;14.80;75.40;;;;;;5068244;28;20231;-73
2023/08/13 09:52:08;;;;;;;9.23;2.77;;;14.80;75.00;;;;;;5065939;28;20184;-69
2023/08/13 09:55:08;;;;;;;8.33;2.40;;;14.90;74.90;;;;;;5065506;28;20543;-74
2023/08/13 09:57:39;;;;;;;10.87;3.23;;;14.80;74.50;;;;;;5044261;28;20699;-69
2023/08/13 10:00:11;;;;;;;10.50;2.63;;;14.90;74.20;;;;;;5070670;28;20570;-66
2023/08/13 10:02:42;;;;;;;13.77;2.80;;;14.80;73.80;;;;;;5075333;28;20664;-66
2023/08/13 10:05:10;;;;;;;12.20;2.70;;;14.80;73.80;;;;;;5051354;28;20290;-66
2023/08/13 10:07:38;;;;;;;8.37;2.50;;;14.90;73.70;;;;;;5078261;28;20248;-68
2023/08/13 10:10:05;;;;;;;8.00;2.20;;;14.90;74.00;;;;;;5063072;28;20195;-68
2023/08/13 10:12:33;;;;;;;8.50;2.27;;;14.90;73.40;;;;;;5078462;28;20226;-66
2023/08/13 10:15:01;;;;;;;13.27;2.50;;;14.90;73.30;;;;;;5060608;28;20908;-73
2023/08/13 10:17:29;;;;;;;8.87;3.37;;;15.00;73.30;;;;;;5073680;28;20247;-74
2023/08/13 10:20:13;;;;;;;8.40;2.23;;;15.00;73.00;;;;;;5069329;28;20193;-66
2023/08/13 10:22:41;;;;;;;6.63;2.30;;;14.90;72.80;;;;;;5058363;28;20708;-65
2023/08/13 10:25:10;;;;;;;6.03;2.33;;;14.90;72.70;;;;;;5082521;28;20179;-65
2023/08/13 10:27:43;;;;;;;10.30;3.37;;;14.90;73.00;;;;;;5077616;28;20249;-69
2023/08/13 10:30:13;;;;;;;7.13;2.63;;;15.00;72.90;;;;;;5070662;28;20198;-66
2023/08/13 10:32:55;;;;;;;11.73;3.07;;;14.90;72.90;;;;;;5075786;28;20233;-65
2023/08/13 10:35:24;;;;;;;16.43;6.00;;;14.90;72.90;;;;;;5074545;28;20190;-65
2023/08/13 10:37:53;;;;;;;9.43;6.23;;;14.90;72.70;;;;;;5079327;28;20599;-65
2023/08/13 10:40:21;;;;;;;14.83;5.90;;;14.90;73.10;;;;;;5081483;28;20660;-65
2023/08/13 10:42:56;;;;;;;15.03;4.03;;;14.90;72.90;;;;;;5076576;28;20194;-66
2023/08/13 10:45:32;;;;;;;12.17;3.70;;;14.80;72.80;;;;;;5072275;28;20266;-65
2023/08/13 10:48:01;;;;;;;7.47;2.93;;;14.90;73.00;;;;;;5069216;28;20204;-65
2023/08/13 10:50:41;;;;;;;10.83;2.93;;;15.00;73.50;;;;;;5066085;28;20645;-68
2023/08/13 10:53:19;;;;;;;12.07;2.60;;;15.00;73.00;;;;;;5079479;28;20913;-65
2023/08/13 10:55:55;;;;;;;10.37;3.40;;;15.00;73.20;;;;;;5075027;28;20187;-66
2023/08/13 10:58:39;;;;;;;10.23;3.47;;;15.00;72.90;;;;;;5079072;28;20185;-69
2023/08/13 11:01:13;;;;;;;8.50;3.17;;;14.90;73.40;;;;;;5068574;28;20198;-68
2023/08/13 11:03:57;;;;;;;6.87;2.97;;;15.00;73.40;;;;;;5071737;28;20190;-70
2023/08/13 11:06:28;;;;;;;6.73;3.07;;;15.00;73.30;;;;;;5077858;28;20238;-68
2023/08/13 11:08:55;;;;;;;15.77;3.77;;;15.00;73.20;;;;;;5070106;28;20217;-72
2023/08/13 11:11:23;;;;;;;8.83;3.63;;;15.00;73.20;;;;;;5076490;28;20184;-70
2023/08/13 11:13:51;;;;;;;10.03;3.37;;;15.00;73.00;;;;;;5064131;28;20213;-68
2023/08/13 11:16:18;;;;;;;7.27;2.87;;;15.00;73.40;;;;;;5065350;28;20183;-70
2023/08/13 11:18:46;;;;;;;7.23;3.33;;;15.00;73.30;;;;;;5065346;28;20199;-68
2023/08/13 11:21:13;;;;;;;12.27;3.70;;;15.00;73.40;;;;;;5067159;28;20187;-69
2023/08/13 11:23:41;;;;;;;9.70;4.03;;;15.00;73.10;;;;;;5082269;28;20195;-69
2023/08/13 11:26:09;;;;;;;9.23;4.00;;;15.00;73.50;;;;;;5073652;28;20536;-74
2023/08/13 11:28:37;;;;;;;12.87;3.57;;;15.00;73.40;;;;;;5077455;28;20225;-71
2023/08/13 11:31:04;;;;;;;11.33;3.57;;;15.00;73.50;;;;;;5076617;28;20188;-68
2023/08/13 11:33:32;;;;;;;9.60;3.90;;;15.00;73.90;;;;;;5090818;28;20549;-73
2023/08/13 11:36:00;;;;;;;6.87;3.50;;;15.00;73.70;;;;;;5079127;28;20191;-70
2023/08/13 11:38:27;;;;;;;10.70;3.73;;;15.00;73.60;;;;;;5077173;28;20281;-73
2023/08/13 11:40:55;;;;;;;11.13;4.07;;;15.00;74.30;;;;;;5079266;28;20568;-68
2023/08/13 11:43:22;;;;;;;9.17;3.87;;;15.10;75.10;;;;;;5083292;28;20652;-69
2023/08/13 11:45:50;;;;;;;14.33;6.43;;;15.10;74.60;;;;;;5078088;28;20187;-72
2023/08/13 11:48:22;;;;;;;12.90;4.40;;;15.00;74.40;;;;;;5081479;28;20264;-73
2023/08/13 11:50:56;;;;;;;10.53;3.40;;;15.00;74.90;;;;;;5075971;28;20198;-66
2023/08/13 11:53:26;;;;;;;9.17;2.90;;;15.10;75.00;;;;;;5079662;28;20187;-67
2023/08/13 11:55:54;;;;;;;12.10;2.97;;;15.10;75.50;;;;;;5076798;28;20191;-66
2023/08/13 11:58:21;;;;;;;7.83;2.67;;;15.00;75.40;;;;;;5073675;28;20529;-68
2023/08/13 12:00:50;;;;;;;11.20;2.93;;;15.00;76.10;;;;;;5072978;28;20219;-64
2023/08/13 12:03:17;;;;;;;9.53;3.20;;;15.00;76.40;;;;;;5076154;28;20182;-70
2023/08/13 12:05:44;;;;;;;8.43;3.00;;;15.00;77.00;;;;;;5066657;28;20184;-72
2023/08/13 12:08:13;;;;;;;6.93;2.43;;;14.90;77.40;;;;;;5059415;28;20233;-71
2023/08/13 12:10:41;;;;;;;11.67;2.80;;;14.90;77.70;;;;;;5075216;28;20206;-73
2023/08/13 12:13:08;;;;;;;7.87;3.20;;;14.90;77.90;;;;;;5073231;28;20187;-72
2023/08/13 12:15:37;;;;;;;14.80;2.80;;;14.80;78.40;;;;;;5073622;28;20179;-66
2023/08/13 12:18:05;;;;;;;9.80;3.00;;;14.80;78.90;;;;;;5076317;28;20273;-67
2023/08/13 12:20:32;;;;;;;11.30;3.20;;;14.80;79.50;;;;;;5072236;28;20565;-65
2023/08/13 12:22:59;;;;;;;8.33;2.63;;;14.80;80.20;;;;;;5068955;28;20205;-67
2023/08/13 12:25:28;;;;;;;11.17;3.40;;;14.80;80.90;;;;;;5080646;28;20183;-67
2023/08/13 12:27:56;;;;;;;15.70;3.27;;;14.80;81.10;;;;;;5079169;28;20202;-69
2023/08/13 12:30:24;;;;;;;12.43;2.63;;;14.80;81.60;;;;;;5065917;28;20620;-67
2023/08/13 12:32:51;;;;;;;10.77;2.07;;;14.70;82.60;;;;;;5069329;28;20176;-69
2023/08/13 12:35:19;;;;;;;6.87;2.37;;;14.50;83.60;;;;;;5066482;28;20183;-68
2023/08/13 12:37:47;;;;;;;9.77;2.60;;;14.50;84.50;;;;;;5071351;28;20230;-65
2023/08/13 12:40:16;;;;;;;6.27;2.00;;;14.40;85.30;;;;;;5076460;28;20221;-66
2023/08/13 12:42:46;;;;;;;8.00;2.60;;;14.40;86.10;;;;;;5069777;28;20195;-69
2023/08/13 12:45:14;;;;;;;14.23;3.40;;;14.40;86.80;;;;;;5077604;28;20187;-66
2023/08/13 12:47:41;;;;;;;9.33;4.00;;;14.30;87.40;;;;;;5078353;28;20544;-71
2023/08/13 12:50:09;;;;;;;9.60;4.73;;;14.30;87.80;;;;;;5076332;28;20210;-71
2023/08/13 12:52:37;;;;;;;7.97;5.17;;;14.20;88.40;;;;;;5074758;28;20645;-72
2023/08/13 12:55:04;;;;;;;8.00;5.77;;;14.20;89.00;;;;;;5077292;28;20187;-75
2023/08/13 12:57:32;;;;;;;16.47;7.33;;;14.00;89.00;;;;;;5076698;28;20225;-75